sensor_id;sensor_type;location;lat;lon;timestamp;P1;durP1;ratioP1;P2;durP2;ratioP2
13951;SDS011;39535;52.192;9.886;2022-12-18T00:01:56;8.10;;;7.30;;
13951;SDS011;39535;52.192;9.886;2022-12-18T00:04:23;8.67;;;7.20;;
13951;SDS011;39535;52.192;9.886;2022-12-18T00:06:52;10.80;;;6.97;;
13951;SDS011;39535;52.192;9.886;2022-12-18T00:09:19;9.33;;;8.47;;
13951;SDS011;39535;52.192;9.886;2022-12-18T00:11:46;9.20;;;7.77;;
13951;SDS011;39535;52.192;9.886;2022-12-18T00:14:12;10.23;;;7.57;;
13951;SDS011;39535;52.192;9.886;2022-12-18T00:16:39;8.00;;;7.30;;
13951;SDS011;39535;52.192;9.886;2022-12-18T00:19:08;6.80;;;6.10;;
13951;SDS011;39535;52.192;9.886;2022-12-18T00:21:36;6.53;;;5.90;;
13951;SDS011;39535;52.192;9.886;2022-12-18T00:24:07;6.73;;;5.80;;
13951;SDS011;39535;52.192;9.886;2022-12-18T00:26:35;6.30;;;5.63;;
13951;SDS011;39535;52.192;9.886;2022-12-18T00:29:04;7.97;;;5.43;;
13951;SDS011;39535;52.192;9.886;2022-12-18T00:31:32;6.07;;;5.40;;
13951;SDS011;39535;52.192;9.886;2022-12-18T00:33:59;7.70;;;6.67;;
13951;SDS011;39535;52.192;9.886;2022-12-18T00:36:26;5.80;;;5.30;;
13951;SDS011;39535;52.192;9.886;2022-12-18T00:38:55;5.97;;;5.30;;
13951;SDS011;39535;52.192;9.886;2022-12-18T00:41:24;6.07;;;5.27;;
13951;SDS011;39535;52.192;9.886;2022-12-18T00:44:09;7.53;;;5.90;;
13951;SDS011;39535;52.192;9.886;2022-12-18T00:46:37;5.97;;;5.47;;
13951;SDS011;39535;52.192;9.886;2022-12-18T00:49:04;8.20;;;5.77;;
13951;SDS011;39535;52.192;9.886;2022-12-18T00:51:30;6.03;;;5.43;;
13951;SDS011;39535;52.192;9.886;2022-12-18T00:53:57;6.43;;;5.77;;
13951;SDS011;39535;52.192;9.886;2022-12-18T00:56:25;5.77;;;5.00;;
13951;SDS011;39535;52.192;9.886;2022-12-18T00:58:51;7.33;;;5.20;;
13951;SDS011;39535;52.192;9.886;2022-12-18T01:01:18;6.30;;;5.70;;
13951;SDS011;39535;52.192;9.886;2022-12-18T01:03:44;5.83;;;5.23;;
13951;SDS011;39535;52.192;9.886;2022-12-18T01:06:12;6.13;;;5.53;;
13951;SDS011;39535;52.192;9.886;2022-12-18T01:08:39;7.77;;;5.57;;
13951;SDS011;39535;52.192;9.886;2022-12-18T01:11:06;6.43;;;5.67;;
13951;SDS011;39535;52.192;9.886;2022-12-18T01:13:35;6.67;;;5.73;;
13951;SDS011;39535;52.192;9.886;2022-12-18T01:16:01;5.23;;;4.60;;
13951;SDS011;39535;52.192;9.886;2022-12-18T01:18:28;5.90;;;5.30;;
13951;SDS011;39535;52.192;9.886;2022-12-18T01:20:54;6.00;;;5.27;;
13951;SDS011;39535;52.192;9.886;2022-12-18T01:23:21;6.47;;;5.27;;
13951;SDS011;39535;52.192;9.886;2022-12-18T01:25:47;6.90;;;6.27;;
13951;SDS011;39535;52.192;9.886;2022-12-18T01:28:14;5.80;;;5.03;;
13951;SDS011;39535;52.192;9.886;2022-12-18T01:30:42;6.17;;;5.53;;
13951;SDS011;39535;52.192;9.886;2022-12-18T01:33:08;5.53;;;4.93;;
13951;SDS011;39535;52.192;9.886;2022-12-18T01:35:39;6.47;;;5.07;;
13951;SDS011;39535;52.192;9.886;2022-12-18T01:38:06;6.00;;;5.40;;
13951;SDS011;39535;52.192;9.886;2022-12-18T01:40:32;5.60;;;5.00;;
13951;SDS011;39535;52.192;9.886;2022-12-18T01:42:59;5.17;;;4.67;;
13951;SDS011;39535;52.192;9.886;2022-12-18T01:45:26;5.67;;;4.87;;
13951;SDS011;39535;52.192;9.886;2022-12-18T01:47:55;9.33;;;5.03;;
13951;SDS011;39535;52.192;9.886;2022-12-18T01:50:24;6.07;;;5.47;;
13951;SDS011;39535;52.192;9.886;2022-12-18T01:52:55;6.30;;;5.57;;
13951;SDS011;39535;52.192;9.886;2022-12-18T01:55:26;7.63;;;6.07;;
13951;SDS011;39535;52.192;9.886;2022-12-18T01:57:56;6.07;;;5.47;;
13951;SDS011;39535;52.192;9.886;2022-12-18T02:00:25;6.33;;;5.70;;
13951;SDS011;39535;52.192;9.886;2022-12-18T02:02:53;8.50;;;5.87;;
13951;SDS011;39535;52.192;9.886;2022-12-18T02:05:22;8.73;;;7.40;;
13951;SDS011;39535;52.192;9.886;2022-12-18T02:07:59;7.87;;;6.33;;
13951;SDS011;39535;52.192;9.886;2022-12-18T02:10:35;6.80;;;6.17;;
13951;SDS011;39535;52.192;9.886;2022-12-18T02:13:10;8.33;;;7.20;;
13951;SDS011;39535;52.192;9.886;2022-12-18T02:15:41;8.40;;;7.63;;
13951;SDS011;39535;52.192;9.886;2022-12-18T02:18:18;8.50;;;7.70;;
13951;SDS011;39535;52.192;9.886;2022-12-18T02:20:49;11.07;;;7.93;;
13951;SDS011;39535;52.192;9.886;2022-12-18T02:23:24;9.33;;;8.33;;
13951;SDS011;39535;52.192;9.886;2022-12-18T02:26:09;10.70;;;7.53;;
13951;SDS011;39535;52.192;9.886;2022-12-18T02:28:42;12.03;;;7.87;;
13951;SDS011;39535;52.192;9.886;2022-12-18T02:31:13;8.40;;;7.50;;
13951;SDS011;39535;52.192;9.886;2022-12-18T02:33:45;8.43;;;7.53;;
13951;SDS011;39535;52.192;9.886;2022-12-18T02:36:14;10.53;;;8.93;;
13951;SDS011;39535;52.192;9.886;2022-12-18T02:38:44;9.57;;;8.63;;
13951;SDS011;39535;52.192;9.886;2022-12-18T02:41:14;10.27;;;7.70;;
13951;SDS011;39535;52.192;9.886;2022-12-18T02:43:45;8.87;;;8.00;;
13951;SDS011;39535;52.192;9.886;2022-12-18T02:46:21;8.30;;;7.50;;
13951;SDS011;39535;52.192;9.886;2022-12-18T02:48:53;8.37;;;7.53;;
13951;SDS011;39535;52.192;9.886;2022-12-18T02:51:29;9.07;;;8.17;;
13951;SDS011;39535;52.192;9.886;2022-12-18T02:54:02;8.13;;;7.33;;
13951;SDS011;39535;52.192;9.886;2022-12-18T02:56:37;8.50;;;7.57;;
13951;SDS011;39535;52.192;9.886;2022-12-18T02:59:11;8.83;;;7.83;;
13951;SDS011;39535;52.192;9.886;2022-12-18T03:01:42;9.73;;;8.43;;
13951;SDS011;39535;52.192;9.886;2022-12-18T03:04:18;8.80;;;8.00;;
13951;SDS011;39535;52.192;9.886;2022-12-18T03:06:51;12.17;;;8.40;;
13951;SDS011;39535;52.192;9.886;2022-12-18T03:09:21;8.33;;;7.47;;
13951;SDS011;39535;52.192;9.886;2022-12-18T03:11:56;8.50;;;7.70;;
13951;SDS011;39535;52.192;9.886;2022-12-18T03:14:45;7.63;;;6.93;;
13951;SDS011;39535;52.192;9.886;2022-12-18T03:17:18;8.30;;;7.47;;
13951;SDS011;39535;52.192;9.886;2022-12-18T03:19:48;7.80;;;7.00;;
13951;SDS011;39535;52.192;9.886;2022-12-18T03:22:17;6.70;;;5.97;;
13951;SDS011;39535;52.192;9.886;2022-12-18T03:24:44;7.17;;;6.47;;
13951;SDS011;39535;52.192;9.886;2022-12-18T03:27:14;8.77;;;7.87;;
13951;SDS011;39535;52.192;9.886;2022-12-18T03:29:43;8.17;;;6.60;;
13951;SDS011;39535;52.192;9.886;2022-12-18T03:32:15;9.87;;;6.57;;
13951;SDS011;39535;52.192;9.886;2022-12-18T03:34:47;8.53;;;6.63;;
13951;SDS011;39535;52.192;9.886;2022-12-18T03:37:17;6.93;;;6.23;;
13951;SDS011;39535;52.192;9.886;2022-12-18T03:39:44;10.50;;;7.23;;
13951;SDS011;39535;52.192;9.886;2022-12-18T03:42:12;7.57;;;6.87;;
13951;SDS011;39535;52.192;9.886;2022-12-18T03:44:48;8.73;;;6.90;;
13951;SDS011;39535;52.192;9.886;2022-12-18T03:47:24;6.43;;;5.83;;
13951;SDS011;39535;52.192;9.886;2022-12-18T03:49:55;8.07;;;5.90;;
13951;SDS011;39535;52.192;9.886;2022-12-18T03:52:29;8.00;;;5.87;;
13951;SDS011;39535;52.192;9.886;2022-12-18T03:55:01;10.57;;;5.80;;
13951;SDS011;39535;52.192;9.886;2022-12-18T03:57:32;4.93;;;4.53;;
13951;SDS011;39535;52.192;9.886;2022-12-18T04:00:00;6.67;;;5.70;;
13951;SDS011;39535;52.192;9.886;2022-12-18T04:02:30;7.40;;;5.50;;
13951;SDS011;39535;52.192;9.886;2022-12-18T04:05:01;7.80;;;5.50;;
13951;SDS011;39535;52.192;9.886;2022-12-18T04:07:30;6.93;;;5.57;;
13951;SDS011;39535;52.192;9.886;2022-12-18T04:09:58;6.20;;;5.60;;
13951;SDS011;39535;52.192;9.886;2022-12-18T04:12:28;6.20;;;5.60;;
13951;SDS011;39535;52.192;9.886;2022-12-18T04:14:56;6.83;;;6.13;;
13951;SDS011;39535;52.192;9.886;2022-12-18T04:17:23;7.27;;;6.23;;
13951;SDS011;39535;52.192;9.886;2022-12-18T04:19:50;7.53;;;6.70;;
13951;SDS011;39535;52.192;9.886;2022-12-18T04:22:16;9.13;;;5.60;;
13951;SDS011;39535;52.192;9.886;2022-12-18T04:24:42;5.87;;;5.20;;
13951;SDS011;39535;52.192;9.886;2022-12-18T04:27:09;7.30;;;6.53;;
13951;SDS011;39535;52.192;9.886;2022-12-18T04:29:35;6.33;;;5.73;;
13951;SDS011;39535;52.192;9.886;2022-12-18T04:32:03;8.47;;;6.17;;
13951;SDS011;39535;52.192;9.886;2022-12-18T04:34:30;6.40;;;5.80;;
13951;SDS011;39535;52.192;9.886;2022-12-18T04:36:56;5.97;;;5.47;;
13951;SDS011;39535;52.192;9.886;2022-12-18T04:39:24;4.90;;;4.40;;
13951;SDS011;39535;52.192;9.886;2022-12-18T04:41:50;5.60;;;5.07;;
13951;SDS011;39535;52.192;9.886;2022-12-18T04:44:17;6.13;;;5.50;;
13951;SDS011;39535;52.192;9.886;2022-12-18T04:46:43;5.80;;;5.20;;
13951;SDS011;39535;52.192;9.886;2022-12-18T04:49:11;7.40;;;5.30;;
13951;SDS011;39535;52.192;9.886;2022-12-18T04:51:38;5.43;;;4.93;;
13951;SDS011;39535;52.192;9.886;2022-12-18T04:54:04;8.40;;;5.27;;
13951;SDS011;39535;52.192;9.886;2022-12-18T04:56:31;5.13;;;4.63;;
13951;SDS011;39535;52.192;9.886;2022-12-18T04:58:58;5.80;;;5.17;;
13951;SDS011;39535;52.192;9.886;2022-12-18T05:01:24;5.83;;;5.07;;
13951;SDS011;39535;52.192;9.886;2022-12-18T05:03:51;7.20;;;5.77;;
13951;SDS011;39535;52.192;9.886;2022-12-18T05:06:19;6.30;;;5.67;;
13951;SDS011;39535;52.192;9.886;2022-12-18T05:08:45;8.03;;;5.23;;
13951;SDS011;39535;52.192;9.886;2022-12-18T05:11:12;5.90;;;5.30;;
13951;SDS011;39535;52.192;9.886;2022-12-18T05:13:41;7.63;;;4.97;;
13951;SDS011;39535;52.192;9.886;2022-12-18T05:16:07;6.83;;;6.07;;
13951;SDS011;39535;52.192;9.886;2022-12-18T05:18:34;5.47;;;4.97;;
13951;SDS011;39535;52.192;9.886;2022-12-18T05:21:00;6.30;;;5.70;;
13951;SDS011;39535;52.192;9.886;2022-12-18T05:23:28;6.67;;;5.03;;
13951;SDS011;39535;52.192;9.886;2022-12-18T05:25:56;6.03;;;5.23;;
13951;SDS011;39535;52.192;9.886;2022-12-18T05:28:25;5.67;;;5.17;;
13951;SDS011;39535;52.192;9.886;2022-12-18T05:30:53;6.00;;;5.20;;
13951;SDS011;39535;52.192;9.886;2022-12-18T05:33:21;5.63;;;5.10;;
13951;SDS011;39535;52.192;9.886;2022-12-18T05:35:50;5.17;;;4.67;;
13951;SDS011;39535;52.192;9.886;2022-12-18T05:38:16;9.20;;;5.10;;
13951;SDS011;39535;52.192;9.886;2022-12-18T05:40:44;5.30;;;4.73;;
13951;SDS011;39535;52.192;9.886;2022-12-18T05:43:11;5.10;;;4.40;;
13951;SDS011;39535;52.192;9.886;2022-12-18T05:45:37;7.53;;;4.43;;
13951;SDS011;39535;52.192;9.886;2022-12-18T05:48:04;5.53;;;4.90;;
13951;SDS011;39535;52.192;9.886;2022-12-18T05:50:33;6.10;;;5.10;;
13951;SDS011;39535;52.192;9.886;2022-12-18T05:53:00;5.43;;;4.63;;
13951;SDS011;39535;52.192;9.886;2022-12-18T05:55:26;6.77;;;4.70;;
13951;SDS011;39535;52.192;9.886;2022-12-18T05:57:54;6.90;;;5.13;;
13951;SDS011;39535;52.192;9.886;2022-12-18T06:00:21;7.40;;;4.80;;
13951;SDS011;39535;52.192;9.886;2022-12-18T06:02:47;7.23;;;5.30;;
13951;SDS011;39535;52.192;9.886;2022-12-18T06:05:14;5.63;;;5.00;;
13951;SDS011;39535;52.192;9.886;2022-12-18T06:07:40;5.77;;;4.97;;
13951;SDS011;39535;52.192;9.886;2022-12-18T06:10:07;6.03;;;4.30;;
13951;SDS011;39535;52.192;9.886;2022-12-18T06:12:33;6.33;;;4.97;;
13951;SDS011;39535;52.192;9.886;2022-12-18T06:15:01;6.23;;;4.50;;
13951;SDS011;39535;52.192;9.886;2022-12-18T06:17:28;4.70;;;4.20;;
13951;SDS011;39535;52.192;9.886;2022-12-18T06:19:55;4.63;;;4.07;;
13951;SDS011;39535;52.192;9.886;2022-12-18T06:22:21;5.47;;;5.00;;
13951;SDS011;39535;52.192;9.886;2022-12-18T06:24:48;5.30;;;4.23;;
13951;SDS011;39535;52.192;9.886;2022-12-18T06:27:14;5.07;;;4.57;;
13951;SDS011;39535;52.192;9.886;2022-12-18T06:29:41;5.00;;;4.50;;
13951;SDS011;39535;52.192;9.886;2022-12-18T06:32:09;6.07;;;4.20;;
13951;SDS011;39535;52.192;9.886;2022-12-18T06:34:36;4.50;;;4.10;;
13951;SDS011;39535;52.192;9.886;2022-12-18T06:37:03;5.23;;;4.70;;
13951;SDS011;39535;52.192;9.886;2022-12-18T06:39:30;5.93;;;3.93;;
13951;SDS011;39535;52.192;9.886;2022-12-18T06:41:56;6.83;;;5.10;;
13951;SDS011;39535;52.192;9.886;2022-12-18T06:44:22;4.50;;;4.10;;
13951;SDS011;39535;52.192;9.886;2022-12-18T06:46:49;4.10;;;3.70;;
13951;SDS011;39535;52.192;9.886;2022-12-18T06:49:17;5.00;;;4.50;;
13951;SDS011;39535;52.192;9.886;2022-12-18T06:51:43;5.93;;;3.87;;
13951;SDS011;39535;52.192;9.886;2022-12-18T06:54:09;5.83;;;4.20;;
13951;SDS011;39535;52.192;9.886;2022-12-18T06:56:36;4.47;;;4.07;;
13951;SDS011;39535;52.192;9.886;2022-12-18T06:59:02;5.80;;;4.80;;
13951;SDS011;39535;52.192;9.886;2022-12-18T07:01:29;5.97;;;4.20;;
13951;SDS011;39535;52.192;9.886;2022-12-18T07:03:56;4.77;;;4.03;;
13951;SDS011;39535;52.192;9.886;2022-12-18T07:06:25;4.70;;;4.27;;
13951;SDS011;39535;52.192;9.886;2022-12-18T07:08:51;6.73;;;4.23;;
13951;SDS011;39535;52.192;9.886;2022-12-18T07:11:20;7.33;;;4.90;;
13951;SDS011;39535;52.192;9.886;2022-12-18T07:13:46;5.93;;;4.43;;
13951;SDS011;39535;52.192;9.886;2022-12-18T07:16:13;4.37;;;3.93;;
13951;SDS011;39535;52.192;9.886;2022-12-18T07:18:41;4.43;;;4.00;;
13951;SDS011;39535;52.192;9.886;2022-12-18T07:21:11;5.17;;;4.17;;
13951;SDS011;39535;52.192;9.886;2022-12-18T07:23:40;5.47;;;4.17;;
13951;SDS011;39535;52.192;9.886;2022-12-18T07:26:08;4.73;;;4.33;;
13951;SDS011;39535;52.192;9.886;2022-12-18T07:28:37;5.47;;;4.23;;
13951;SDS011;39535;52.192;9.886;2022-12-18T07:31:06;4.97;;;4.27;;
13951;SDS011;39535;52.192;9.886;2022-12-18T07:33:34;4.60;;;4.20;;
13951;SDS011;39535;52.192;9.886;2022-12-18T07:36:01;4.67;;;3.97;;
13951;SDS011;39535;52.192;9.886;2022-12-18T07:38:31;4.53;;;3.73;;
13951;SDS011;39535;52.192;9.886;2022-12-18T07:41:01;4.50;;;3.97;;
13951;SDS011;39535;52.192;9.886;2022-12-18T07:43:31;4.83;;;4.37;;
13951;SDS011;39535;52.192;9.886;2022-12-18T07:45:59;4.27;;;3.83;;
13951;SDS011;39535;52.192;9.886;2022-12-18T07:48:26;5.50;;;3.93;;
13951;SDS011;39535;52.192;9.886;2022-12-18T07:50:53;4.40;;;4.00;;
13951;SDS011;39535;52.192;9.886;2022-12-18T07:53:20;4.20;;;3.80;;
13951;SDS011;39535;52.192;9.886;2022-12-18T07:55:46;4.60;;;3.97;;
13951;SDS011;39535;52.192;9.886;2022-12-18T07:58:15;5.43;;;4.43;;
13951;SDS011;39535;52.192;9.886;2022-12-18T08:00:42;4.60;;;4.10;;
13951;SDS011;39535;52.192;9.886;2022-12-18T08:03:17;6.63;;;3.83;;
13951;SDS011;39535;52.192;9.886;2022-12-18T08:05:44;4.60;;;3.90;;
13951;SDS011;39535;52.192;9.886;2022-12-18T08:08:12;4.53;;;3.20;;
13951;SDS011;39535;52.192;9.886;2022-12-18T08:10:38;5.70;;;3.80;;
13951;SDS011;39535;52.192;9.886;2022-12-18T08:13:05;5.83;;;4.07;;
13951;SDS011;39535;52.192;9.886;2022-12-18T08:15:35;5.33;;;4.63;;
13951;SDS011;39535;52.192;9.886;2022-12-18T08:18:01;4.90;;;4.00;;
13951;SDS011;39535;52.192;9.886;2022-12-18T08:20:28;7.83;;;4.13;;
13951;SDS011;39535;52.192;9.886;2022-12-18T08:22:54;5.03;;;4.43;;
13951;SDS011;39535;52.192;9.886;2022-12-18T08:25:23;4.83;;;4.33;;
13951;SDS011;39535;52.192;9.886;2022-12-18T08:27:49;4.83;;;4.07;;
13951;SDS011;39535;52.192;9.886;2022-12-18T08:30:16;5.30;;;4.23;;
13951;SDS011;39535;52.192;9.886;2022-12-18T08:32:44;4.57;;;3.97;;
13951;SDS011;39535;52.192;9.886;2022-12-18T08:35:10;4.47;;;4.07;;
13951;SDS011;39535;52.192;9.886;2022-12-18T08:37:37;4.47;;;3.40;;
13951;SDS011;39535;52.192;9.886;2022-12-18T08:40:04;4.53;;;3.37;;
13951;SDS011;39535;52.192;9.886;2022-12-18T08:42:32;4.33;;;3.80;;
13951;SDS011;39535;52.192;9.886;2022-12-18T08:45:17;4.17;;;3.53;;
13951;SDS011;39535;52.192;9.886;2022-12-18T08:47:45;4.07;;;3.17;;
13951;SDS011;39535;52.192;9.886;2022-12-18T08:50:11;4.27;;;3.40;;
13951;SDS011;39535;52.192;9.886;2022-12-18T08:52:37;5.37;;;3.50;;
13951;SDS011;39535;52.192;9.886;2022-12-18T08:55:04;3.97;;;3.23;;
13951;SDS011;39535;52.192;9.886;2022-12-18T08:57:31;3.97;;;3.27;;
13951;SDS011;39535;52.192;9.886;2022-12-18T08:59:58;3.63;;;3.07;;
13951;SDS011;39535;52.192;9.886;2022-12-18T09:02:30;4.10;;;2.67;;
13951;SDS011;39535;52.192;9.886;2022-12-18T09:04:58;4.05;;;3.50;;
13951;SDS011;39535;52.192;9.886;2022-12-18T09:07:28;3.57;;;3.27;;
13951;SDS011;39535;52.192;9.886;2022-12-18T09:09:56;4.93;;;2.87;;
13951;SDS011;39535;52.192;9.886;2022-12-18T09:12:25;3.43;;;2.43;;
13951;SDS011;39535;52.192;9.886;2022-12-18T09:14:53;2.70;;;2.23;;
13951;SDS011;39535;52.192;9.886;2022-12-18T09:17:19;3.23;;;2.27;;
13951;SDS011;39535;52.192;9.886;2022-12-18T09:19:46;4.07;;;2.57;;
13951;SDS011;39535;52.192;9.886;2022-12-18T09:22:14;5.07;;;2.60;;
13951;SDS011;39535;52.192;9.886;2022-12-18T09:24:42;3.00;;;2.70;;
13951;SDS011;39535;52.192;9.886;2022-12-18T09:27:08;3.77;;;2.43;;
13951;SDS011;39535;52.192;9.886;2022-12-18T09:29:35;4.50;;;2.40;;
13951;SDS011;39535;52.192;9.886;2022-12-18T09:32:02;2.83;;;2.33;;
13951;SDS011;39535;52.192;9.886;2022-12-18T09:34:28;3.57;;;2.13;;
13951;SDS011;39535;52.192;9.886;2022-12-18T09:36:55;2.63;;;2.00;;
13951;SDS011;39535;52.192;9.886;2022-12-18T09:39:24;2.40;;;2.20;;
13951;SDS011;39535;52.192;9.886;2022-12-18T09:41:54;5.30;;;2.10;;
13951;SDS011;39535;52.192;9.886;2022-12-18T09:44:24;2.45;;;2.25;;
13951;SDS011;39535;52.192;9.886;2022-12-18T09:47:06;2.63;;;2.43;;
13951;SDS011;39535;52.192;9.886;2022-12-18T09:49:36;3.93;;;2.30;;
13951;SDS011;39535;52.192;9.886;2022-12-18T09:52:08;3.27;;;2.30;;
13951;SDS011;39535;52.192;9.886;2022-12-18T09:54:41;2.77;;;2.30;;
13951;SDS011;39535;52.192;9.886;2022-12-18T09:57:10;2.50;;;2.03;;
13951;SDS011;39535;52.192;9.886;2022-12-18T09:59:40;5.23;;;1.77;;
13951;SDS011;39535;52.192;9.886;2022-12-18T10:02:16;2.63;;;1.97;;
13951;SDS011;39535;52.192;9.886;2022-12-18T10:04:48;3.47;;;2.60;;
13951;SDS011;39535;52.192;9.886;2022-12-18T10:07:24;4.50;;;2.53;;
13951;SDS011;39535;52.192;9.886;2022-12-18T10:10:03;4.60;;;2.63;;
13951;SDS011;39535;52.192;9.886;2022-12-18T10:12:36;4.57;;;3.03;;
13951;SDS011;39535;52.192;9.886;2022-12-18T10:15:17;2.93;;;2.03;;
13951;SDS011;39535;52.192;9.886;2022-12-18T10:17:54;3.17;;;2.20;;
13951;SDS011;39535;52.192;9.886;2022-12-18T10:20:30;1.87;;;1.67;;
13951;SDS011;39535;52.192;9.886;2022-12-18T10:23:04;3.43;;;1.77;;
13951;SDS011;39535;52.192;9.886;2022-12-18T10:25:43;2.83;;;1.97;;
13951;SDS011;39535;52.192;9.886;2022-12-18T10:28:15;3.10;;;1.50;;
13951;SDS011;39535;52.192;9.886;2022-12-18T10:30:46;3.07;;;2.07;;
13951;SDS011;39535;52.192;9.886;2022-12-18T10:33:13;3.07;;;1.57;;
13951;SDS011;39535;52.192;9.886;2022-12-18T10:35:43;1.73;;;1.60;;
13951;SDS011;39535;52.192;9.886;2022-12-18T10:38:21;1.70;;;1.60;;
13951;SDS011;39535;52.192;9.886;2022-12-18T10:40:53;3.17;;;1.60;;
13951;SDS011;39535;52.192;9.886;2022-12-18T10:43:22;2.10;;;1.60;;
13951;SDS011;39535;52.192;9.886;2022-12-18T10:46:00;1.60;;;1.50;;
13951;SDS011;39535;52.192;9.886;2022-12-18T10:48:29;2.60;;;1.80;;
13951;SDS011;39535;52.192;9.886;2022-12-18T10:50:57;2.83;;;2.63;;
13951;SDS011;39535;52.192;9.886;2022-12-18T10:53:24;2.97;;;1.60;;
13951;SDS011;39535;52.192;9.886;2022-12-18T10:55:53;2.03;;;1.60;;
13951;SDS011;39535;52.192;9.886;2022-12-18T10:58:23;2.27;;;1.50;;
13951;SDS011;39535;52.192;9.886;2022-12-18T11:01:01;11.43;;;3.80;;
13951;SDS011;39535;52.192;9.886;2022-12-18T11:03:35;2.10;;;1.50;;
13951;SDS011;39535;52.192;9.886;2022-12-18T11:06:03;2.77;;;1.40;;
13951;SDS011;39535;52.192;9.886;2022-12-18T11:08:32;2.10;;;1.80;;
13951;SDS011;39535;52.192;9.886;2022-12-18T11:11:00;2.73;;;1.83;;
13951;SDS011;39535;52.192;9.886;2022-12-18T11:13:29;1.30;;;1.20;;
13951;SDS011;39535;52.192;9.886;2022-12-18T11:15:57;2.13;;;1.50;;
13951;SDS011;39535;52.192;9.886;2022-12-18T11:18:25;1.53;;;1.30;;
13951;SDS011;39535;52.192;9.886;2022-12-18T11:20:54;1.97;;;1.20;;
13951;SDS011;39535;52.192;9.886;2022-12-18T11:23:23;2.23;;;1.40;;
13951;SDS011;39535;52.192;9.886;2022-12-18T11:25:51;1.43;;;1.30;;
13951;SDS011;39535;52.192;9.886;2022-12-18T11:28:36;2.00;;;1.10;;
13951;SDS011;39535;52.192;9.886;2022-12-18T11:33:54;1.27;;;1.07;;
13951;SDS011;39535;52.192;9.886;2022-12-18T11:36:25;1.83;;;1.20;;
13951;SDS011;39535;52.192;9.886;2022-12-18T11:38:59;1.77;;;1.57;;
13951;SDS011;39535;52.192;9.886;2022-12-18T11:41:32;1.70;;;1.60;;
13951;SDS011;39535;52.192;9.886;2022-12-18T11:44:24;1.93;;;1.43;;
13951;SDS011;39535;52.192;9.886;2022-12-18T11:46:55;2.90;;;1.53;;
13951;SDS011;39535;52.192;9.886;2022-12-18T11:49:27;2.40;;;1.70;;
13951;SDS011;39535;52.192;9.886;2022-12-18T11:52:00;2.13;;;1.40;;
13951;SDS011;39535;52.192;9.886;2022-12-18T11:54:32;2.00;;;1.57;;
13951;SDS011;39535;52.192;9.886;2022-12-18T11:57:01;3.37;;;1.87;;
13951;SDS011;39535;52.192;9.886;2022-12-18T11:59:37;1.80;;;1.70;;
13951;SDS011;39535;52.192;9.886;2022-12-18T12:02:17;2.67;;;2.13;;
13951;SDS011;39535;52.192;9.886;2022-12-18T12:05:16;1.83;;;1.63;;
13951;SDS011;39535;52.192;9.886;2022-12-18T12:07:51;2.47;;;1.70;;
13951;SDS011;39535;52.192;9.886;2022-12-18T12:10:30;2.87;;;2.00;;
13951;SDS011;39535;52.192;9.886;2022-12-18T12:13:11;1.73;;;1.57;;
13951;SDS011;39535;52.192;9.886;2022-12-18T12:15:49;2.17;;;1.77;;
13951;SDS011;39535;52.192;9.886;2022-12-18T12:18:26;3.93;;;1.90;;
13951;SDS011;39535;52.192;9.886;2022-12-18T12:21:04;2.87;;;1.70;;
13951;SDS011;39535;52.192;9.886;2022-12-18T12:23:40;2.27;;;2.07;;
13951;SDS011;39535;52.192;9.886;2022-12-18T12:26:16;3.17;;;1.93;;
13951;SDS011;39535;52.192;9.886;2022-12-18T12:28:52;9.43;;;2.63;;
13951;SDS011;39535;52.192;9.886;2022-12-18T12:31:45;6.17;;;2.93;;
13951;SDS011;39535;52.192;9.886;2022-12-18T12:34:22;2.90;;;2.20;;
13951;SDS011;39535;52.192;9.886;2022-12-18T12:37:00;3.03;;;1.93;;
13951;SDS011;39535;52.192;9.886;2022-12-18T12:39:38;2.60;;;2.10;;
13951;SDS011;39535;52.192;9.886;2022-12-18T12:42:10;2.63;;;2.13;;
13951;SDS011;39535;52.192;9.886;2022-12-18T12:44:59;4.07;;;2.20;;
13951;SDS011;39535;52.192;9.886;2022-12-18T12:47:33;2.73;;;2.07;;
13951;SDS011;39535;52.192;9.886;2022-12-18T12:50:12;2.60;;;2.10;;
13951;SDS011;39535;52.192;9.886;2022-12-18T12:52:42;2.93;;;2.20;;
13951;SDS011;39535;52.192;9.886;2022-12-18T12:55:13;2.30;;;1.70;;
13951;SDS011;39535;52.192;9.886;2022-12-18T12:57:43;2.53;;;2.33;;
13951;SDS011;39535;52.192;9.886;2022-12-18T13:00:14;3.70;;;2.77;;
13951;SDS011;39535;52.192;9.886;2022-12-18T13:02:47;3.50;;;3.20;;
13951;SDS011;39535;52.192;9.886;2022-12-18T13:05:19;3.27;;;2.93;;
13951;SDS011;39535;52.192;9.886;2022-12-18T13:07:50;7.07;;;5.50;;
13951;SDS011;39535;52.192;9.886;2022-12-18T13:10:24;7.53;;;5.67;;
13951;SDS011;39535;52.192;9.886;2022-12-18T13:12:59;7.10;;;6.47;;
13951;SDS011;39535;52.192;9.886;2022-12-18T13:15:29;8.53;;;7.73;;
13951;SDS011;39535;52.192;9.886;2022-12-18T13:20:49;9.33;;;8.43;;
13951;SDS011;39535;52.192;9.886;2022-12-18T13:23:27;9.03;;;8.23;;
13951;SDS011;39535;52.192;9.886;2022-12-18T13:25:56;9.70;;;8.80;;
13951;SDS011;39535;52.192;9.886;2022-12-18T13:28:24;8.80;;;8.10;;
13951;SDS011;39535;52.192;9.886;2022-12-18T13:34:27;12.37;;;8.27;;
13951;SDS011;39535;52.192;9.886;2022-12-18T13:36:56;9.37;;;8.00;;
13951;SDS011;39535;52.192;9.886;2022-12-18T13:39:43;10.80;;;7.73;;
13951;SDS011;39535;52.192;9.886;2022-12-18T13:48:25;8.60;;;7.80;;
13951;SDS011;39535;52.192;9.886;2022-12-18T13:50:57;8.30;;;7.40;;
13951;SDS011;39535;52.192;9.886;2022-12-18T13:53:27;8.80;;;8.00;;
13951;SDS011;39535;52.192;9.886;2022-12-18T13:55:58;9.40;;;8.40;;
13951;SDS011;39535;52.192;9.886;2022-12-18T13:58:24;8.83;;;7.93;;
13951;SDS011;39535;52.192;9.886;2022-12-18T14:00:52;8.77;;;7.87;;
13951;SDS011;39535;52.192;9.886;2022-12-18T14:03:20;10.20;;;9.20;;
13951;SDS011;39535;52.192;9.886;2022-12-18T14:05:55;10.80;;;9.83;;
13951;SDS011;39535;52.192;9.886;2022-12-18T14:08:27;13.37;;;11.97;;
13951;SDS011;39535;52.192;9.886;2022-12-18T14:10:59;11.07;;;9.97;;
13951;SDS011;39535;52.192;9.886;2022-12-18T14:13:28;18.67;;;11.43;;
13951;SDS011;39535;52.192;9.886;2022-12-18T14:15:58;11.73;;;9.87;;
13951;SDS011;39535;52.192;9.886;2022-12-18T14:18:29;11.33;;;10.23;;
13951;SDS011;39535;52.192;9.886;2022-12-18T14:21:04;14.00;;;12.70;;
13951;SDS011;39535;52.192;9.886;2022-12-18T14:23:32;14.30;;;12.90;;
13951;SDS011;39535;52.192;9.886;2022-12-18T14:26:01;11.17;;;10.17;;
13951;SDS011;39535;52.192;9.886;2022-12-18T14:28:30;12.03;;;10.93;;
13951;SDS011;39535;52.192;9.886;2022-12-18T14:30:58;14.03;;;11.30;;
13951;SDS011;39535;52.192;9.886;2022-12-18T14:33:24;14.67;;;13.03;;
13951;SDS011;39535;52.192;9.886;2022-12-18T14:35:53;35.57;;;21.97;;
13951;SDS011;39535;52.192;9.886;2022-12-18T14:38:23;14.83;;;13.23;;
13951;SDS011;39535;52.192;9.886;2022-12-18T14:40:52;39.27;;;24.17;;
13951;SDS011;39535;52.192;9.886;2022-12-18T14:43:20;19.90;;;16.43;;
13951;SDS011;39535;52.192;9.886;2022-12-18T14:45:47;16.83;;;15.17;;
13951;SDS011;39535;52.192;9.886;2022-12-18T14:48:17;35.77;;;25.83;;
13951;SDS011;39535;52.192;9.886;2022-12-18T14:50:54;36.60;;;26.17;;
13951;SDS011;39535;52.192;9.886;2022-12-18T14:53:22;22.00;;;17.47;;
13951;SDS011;39535;52.192;9.886;2022-12-18T14:55:53;40.97;;;29.10;;
13951;SDS011;39535;52.192;9.886;2022-12-18T14:58:19;37.27;;;24.93;;
13951;SDS011;39535;52.192;9.886;2022-12-18T15:00:46;35.60;;;23.00;;
13951;SDS011;39535;52.192;9.886;2022-12-18T15:03:13;45.23;;;28.90;;
13951;SDS011;39535;52.192;9.886;2022-12-18T15:05:46;19.97;;;17.90;;
13951;SDS011;39535;52.192;9.886;2022-12-18T15:08:28;17.13;;;15.33;;
13951;SDS011;39535;52.192;9.886;2022-12-18T15:13:39;12.27;;;10.90;;
13951;SDS011;39535;52.192;9.886;2022-12-18T15:16:06;17.40;;;14.90;;
13951;SDS011;39535;52.192;9.886;2022-12-18T15:18:41;25.00;;;22.17;;
13951;SDS011;39535;52.192;9.886;2022-12-18T15:21:11;108.87;;;60.17;;